Time;durP1;ratioP1;P1;durP2;ratioP2;P2;SDS_P1;SDS_P2;PMS_P1;PMS_P2;Temp;Humidity;BMP_temperature;BMP_pressure;BME280_temperature;BME280_humidity;BME280_pressure;Samples;Min_cycle;Max_cycle;Signal;HPM_P1;HPM_P2
2023/07/28 00:02:06;;;;;;;3.60;3.30;;;20.70;99.90;;;;;;5050346;28;20032;-60
2023/07/28 00:04:35;;;;;;;5.05;3.58;;;20.70;99.90;;;;;;5051726;28;20029;-61
2023/07/28 00:07:01;;;;;;;3.90;3.50;;;20.70;99.90;;;;;;5052394;28;20029;-60
2023/07/28 00:09:26;;;;;;;4.88;3.53;;;20.70;99.90;;;;;;5052035;28;20406;-60
2023/07/28 00:11:52;;;;;;;6.10;3.78;;;20.70;99.90;;;;;;5051994;28;20027;-60
2023/07/28 00:14:18;;;;;;;3.80;3.50;;;20.70;99.90;;;;;;5051521;28;20762;-61
2023/07/28 00:16:43;;;;;;;4.65;3.50;;;20.80;99.90;;;;;;5051678;28;20028;-60
2023/07/28 00:19:09;;;;;;;3.60;3.30;;;20.90;99.90;;;;;;5051734;28;20029;-61
2023/07/28 00:21:35;;;;;;;5.10;3.88;;;20.80;99.90;;;;;;5051701;28;20025;-61
2023/07/28 00:24:00;;;;;;;4.53;3.63;;;20.70;99.90;;;;;;5051386;28;20049;-60
2023/07/28 00:26:26;;;;;;;5.85;3.95;;;20.40;99.90;;;;;;5052163;28;20540;-60
2023/07/28 00:28:51;;;;;;;4.30;3.88;;;20.30;99.90;;;;;;5051620;28;20028;-60
2023/07/28 00:31:17;;;;;;;4.65;4.15;;;20.10;99.90;;;;;;5051458;28;20512;-60
2023/07/28 00:33:43;;;;;;;4.90;4.10;;;20.00;99.90;;;;;;5051391;28;20442;-60
2023/07/28 00:36:08;;;;;;;4.53;3.80;;;19.90;99.90;;;;;;5051687;28;20064;-61
2023/07/28 00:38:34;;;;;;;5.38;4.20;;;19.80;99.90;;;;;;5051423;28;20033;-60
2023/07/28 00:41:00;;;;;;;5.45;4.28;;;19.80;99.90;;;;;;5051378;28;20021;-60
2023/07/28 00:43:25;;;;;;;4.57;4.03;;;19.80;99.90;;;;;;5051319;28;20490;-61
2023/07/28 00:45:51;;;;;;;4.82;4.30;;;19.80;99.90;;;;;;5051288;28;20032;-60
2023/07/28 00:48:17;;;;;;;4.55;4.15;;;19.80;99.90;;;;;;5050977;28;20500;-59
2023/07/28 00:50:48;;;;;;;5.63;4.25;;;19.80;99.90;;;;;;5051560;28;20028;-61
2023/07/28 00:53:14;;;;;;;5.05;4.40;;;19.80;99.90;;;;;;5051509;28;20043;-60
2023/07/28 00:55:41;;;;;;;7.35;4.57;;;19.70;99.90;;;;;;5051189;28;20524;-61
2023/07/28 00:58:08;;;;;;;5.53;4.70;;;19.70;99.90;;;;;;5051029;28;20033;-60
2023/07/28 01:00:34;;;;;;;5.90;4.53;;;19.70;99.90;;;;;;5051165;28;20025;-60
2023/07/28 01:03:00;;;;;;;5.03;4.53;;;19.70;99.90;;;;;;5051110;28;20088;-60
2023/07/28 01:05:35;;;;;;;5.53;4.78;;;19.70;99.90;;;;;;5051066;28;20029;-60
2023/07/28 01:08:16;;;;;;;4.78;4.38;;;19.70;99.90;;;;;;5051018;28;20021;-60
2023/07/28 01:10:43;;;;;;;5.22;4.47;;;20.00;99.90;;;;;;5051459;28;20090;-60
2023/07/28 01:13:08;;;;;;;4.88;4.40;;;20.10;99.90;;;;;;5050863;28;20091;-60
2023/07/28 01:15:34;;;;;;;5.97;4.45;;;20.30;99.90;;;;;;5053837;28;20493;-60
2023/07/28 01:18:00;;;;;;;4.57;4.18;;;20.30;99.90;;;;;;5055156;28;20094;-60
2023/07/28 01:20:31;;;;;;;5.60;4.30;;;20.30;99.90;;;;;;5055113;28;20486;-60
2023/07/28 01:23:16;;;;;;;4.60;4.20;;;20.40;99.90;;;;;;5054998;28;20112;-60
2023/07/28 01:25:50;;;;;;;4.55;3.97;;;20.30;99.90;;;;;;5054974;28;20513;-60
2023/07/28 01:28:18;;;;;;;4.82;4.38;;;20.40;99.90;;;;;;5055065;28;20031;-60
2023/07/28 01:30:44;;;;;;;6.07;4.55;;;20.30;99.90;;;;;;5054551;28;20028;-59
2023/07/28 01:33:10;;;;;;;5.80;4.30;;;20.30;99.90;;;;;;5055290;28;20041;-61
2023/07/28 01:35:38;;;;;;;5.40;4.88;;;20.30;99.90;;;;;;5054902;28;20029;-60
2023/07/28 01:38:05;;;;;;;4.95;4.07;;;20.30;99.90;;;;;;5054756;28;20397;-60
2023/07/28 01:40:30;;;;;;;5.10;4.60;;;20.30;99.90;;;;;;5054729;28;20018;-61
2023/07/28 01:42:56;;;;;;;5.93;4.95;;;20.00;99.90;;;;;;5054564;28;20040;-60
2023/07/28 01:45:22;;;;;;;5.05;4.57;;;19.90;99.90;;;;;;5054736;28;20017;-60
2023/07/28 01:47:48;;;;;;;5.65;5.07;;;19.70;99.90;;;;;;5054612;28;20036;-60
2023/07/28 01:50:13;;;;;;;6.65;5.28;;;19.60;99.90;;;;;;5054486;28;20469;-61
2023/07/28 01:52:39;;;;;;;5.38;4.85;;;19.50;99.90;;;;;;5054531;28;20100;-60
2023/07/28 01:55:06;;;;;;;5.65;4.93;;;19.50;99.90;;;;;;5054908;28;20452;-60
2023/07/28 01:57:35;;;;;;;5.70;5.05;;;19.50;99.90;;;;;;5054409;28;20136;-60
2023/07/28 02:00:03;;;;;;;5.53;5.03;;;19.60;99.90;;;;;;5054037;28;20112;-60
2023/07/28 02:02:29;;;;;;;6.75;5.38;;;19.50;99.90;;;;;;5054952;28;20112;-60
2023/07/28 02:04:54;;;;;;;5.10;4.60;;;19.60;99.90;;;;;;5054335;28;20056;-60
2023/07/28 02:07:20;;;;;;;6.85;5.13;;;19.60;99.90;;;;;;5054379;28;20032;-60
2023/07/28 02:09:45;;;;;;;5.85;4.68;;;19.60;99.90;;;;;;5054371;28;20074;-60
2023/07/28 02:12:11;;;;;;;5.63;5.00;;;19.60;99.90;;;;;;5054434;28;20554;-60
2023/07/28 02:14:37;;;;;;;6.00;4.88;;;19.70;99.90;;;;;;5053458;28;20049;-60
2023/07/28 02:17:03;;;;;;;6.32;5.00;;;19.70;99.90;;;;;;5054106;28;20021;-60
2023/07/28 02:19:28;;;;;;;5.63;5.00;;;19.70;99.90;;;;;;5054106;28;20070;-59
2023/07/28 02:21:54;;;;;;;7.05;5.47;;;19.60;99.90;;;;;;5053992;28;20506;-60
2023/07/28 02:24:19;;;;;;;5.68;5.05;;;19.80;99.90;;;;;;5053767;28;20392;-60
2023/07/28 02:26:45;;;;;;;6.07;5.32;;;20.00;99.90;;;;;;5053582;28;20044;-60
2023/07/28 02:29:11;;;;;;;6.63;4.90;;;20.10;99.90;;;;;;5052584;28;20119;-60
2023/07/28 02:31:36;;;;;;;5.50;4.97;;;20.20;99.90;;;;;;5053852;28;20037;-60
2023/07/28 02:34:02;;;;;;;7.25;5.38;;;20.40;99.90;;;;;;5053589;28;20048;-60
2023/07/28 02:36:28;;;;;;;5.95;4.47;;;20.40;99.90;;;;;;5053764;28;20100;-60
2023/07/28 02:38:53;;;;;;;5.88;5.30;;;20.40;99.90;;;;;;5054192;28;20490;-60
2023/07/28 02:41:19;;;;;;;6.43;4.72;;;20.40;99.90;;;;;;5053470;28;20025;-60
2023/07/28 02:43:45;;;;;;;5.75;5.05;;;20.50;99.90;;;;;;5053238;28;20082;-60
2023/07/28 02:46:10;;;;;;;5.45;4.60;;;20.40;99.90;;;;;;5053474;28;20028;-60
2023/07/28 02:48:36;;;;;;;5.60;5.00;;;20.40;99.90;;;;;;5053508;28;20065;-60
2023/07/28 02:51:01;;;;;;;5.68;4.80;;;20.40;99.90;;;;;;5053724;28;20075;-60
2023/07/28 02:53:27;;;;;;;6.90;4.93;;;20.60;99.90;;;;;;5053199;28;20033;-60
2023/07/28 02:55:53;;;;;;;7.03;5.28;;;20.50;99.90;;;;;;5053454;28;20122;-60
2023/07/28 02:58:19;;;;;;;7.50;4.90;;;20.30;99.90;;;;;;5052948;28;20410;-60
2023/07/28 03:00:46;;;;;;;5.80;5.07;;;20.20;99.90;;;;;;5053602;28;20033;-61
2023/07/28 03:03:12;;;;;;;5.40;4.90;;;20.10;99.90;;;;;;5053175;28;20070;-60
2023/07/28 03:05:39;;;;;;;6.50;5.18;;;20.00;99.90;;;;;;5053216;28;20025;-60
2023/07/28 03:08:05;;;;;;;6.55;4.93;;;19.90;99.90;;;;;;5051849;28;20021;-60
2023/07/28 03:10:31;;;;;;;6.95;5.07;;;19.90;99.90;;;;;;5053502;28;20029;-60
2023/07/28 03:12:57;;;;;;;5.90;5.03;;;19.80;99.90;;;;;;5052426;28;20047;-60
2023/07/28 03:15:23;;;;;;;6.60;4.82;;;19.70;99.90;;;;;;5052975;28;20033;-60
2023/07/28 03:17:50;;;;;;;6.75;5.50;;;19.70;99.90;;;;;;5053291;28;20025;-61
2023/07/28 03:20:15;;;;;;;7.85;5.82;;;19.70;99.90;;;;;;5052502;28;20366;-61
2023/07/28 03:22:41;;;;;;;5.57;4.88;;;19.70;99.90;;;;;;5053130;28;20024;-60
2023/07/28 03:25:07;;;;;;;6.38;5.68;;;19.60;99.90;;;;;;5052501;28;20060;-60
2023/07/28 03:27:33;;;;;;;8.15;5.13;;;19.60;99.90;;;;;;5050985;28;20044;-60
2023/07/28 03:29:59;;;;;;;6.07;5.43;;;19.60;99.90;;;;;;5052635;28;20029;-60
2023/07/28 03:32:25;;;;;;;7.53;5.30;;;19.50;99.90;;;;;;5053001;28;20034;-60
2023/07/28 03:34:51;;;;;;;7.10;5.07;;;19.60;99.90;;;;;;5052638;28;20048;-60
2023/07/28 03:37:16;;;;;;;6.15;5.25;;;19.60;99.90;;;;;;5051859;28;20036;-60
2023/07/28 03:39:42;;;;;;;5.30;4.80;;;19.60;99.90;;;;;;5052439;28;20544;-60
2023/07/28 03:42:08;;;;;;;7.47;5.03;;;19.80;99.90;;;;;;5052610;28;20508;-60
2023/07/28 03:44:34;;;;;;;5.68;5.10;;;19.90;99.90;;;;;;5052396;28;20033;-60
2023/07/28 03:47:00;;;;;;;6.82;5.15;;;20.10;99.90;;;;;;5052366;28;20037;-60
2023/07/28 03:49:26;;;;;;;5.95;5.35;;;20.20;99.90;;;;;;5052329;28;20111;-60
2023/07/28 03:51:52;;;;;;;7.43;5.25;;;20.30;99.90;;;;;;5052316;28;20112;-60
2023/07/28 03:54:17;;;;;;;6.85;5.32;;;20.30;99.90;;;;;;5052007;28;20029;-60
2023/07/28 03:56:43;;;;;;;5.70;4.70;;;20.30;99.90;;;;;;5051805;28;20409;-60
2023/07/28 03:59:09;;;;;;;5.82;4.70;;;20.30;99.90;;;;;;5050911;28;20034;-60
2023/07/28 04:01:34;;;;;;;5.53;4.65;;;20.30;99.90;;;;;;5052492;28;20452;-60
2023/07/28 04:04:04;;;;;;;5.63;5.00;;;20.30;99.90;;;;;;5051920;28;20029;-60
2023/07/28 04:06:43;;;;;;;7.38;4.88;;;20.40;99.90;;;;;;5052076;28;20013;-61
2023/07/28 04:09:09;;;;;;;7.25;4.82;;;20.40;99.90;;;;;;5051973;28;20066;-61
2023/07/28 04:11:35;;;;;;;7.07;4.90;;;20.30;99.90;;;;;;5052264;28;20032;-60
2023/07/28 04:14:02;;;;;;;7.38;4.82;;;20.20;99.90;;;;;;5051485;28;20044;-60
2023/07/28 04:16:28;;;;;;;7.65;5.20;;;20.00;99.90;;;;;;5051897;28;20079;-60
2023/07/28 04:18:53;;;;;;;5.60;5.10;;;19.90;99.90;;;;;;5052250;28;20029;-60
2023/07/28 04:21:20;;;;;;;7.38;5.38;;;19.80;99.90;;;;;;5051410;28;20032;-60
2023/07/28 04:23:45;;;;;;;6.80;4.90;;;19.80;99.90;;;;;;5051771;28;20056;-60
2023/07/28 04:26:11;;;;;;;6.85;5.38;;;19.70;99.90;;;;;;5051312;28;20509;-60
2023/07/28 04:28:36;;;;;;;6.45;5.10;;;19.60;99.90;;;;;;5051675;28;20528;-60
2023/07/28 04:31:02;;;;;;;7.70;5.18;;;19.60;99.90;;;;;;5052105;28;20454;-60
2023/07/28 04:33:28;;;;;;;5.93;5.15;;;19.60;99.90;;;;;;5051384;28;20590;-60
2023/07/28 04:35:54;;;;;;;6.63;5.05;;;19.50;99.90;;;;;;5051497;28;20028;-61
2023/07/28 04:38:19;;;;;;;6.03;5.20;;;19.50;99.90;;;;;;5051345;28;20381;-60
2023/07/28 04:40:45;;;;;;;7.10;5.30;;;19.50;99.90;;;;;;5051019;28;20509;-61
2023/07/28 04:43:11;;;;;;;5.50;4.90;;;19.50;99.90;;;;;;5051800;28;20033;-61
2023/07/28 04:45:36;;;;;;;6.38;4.70;;;19.50;99.90;;;;;;5051283;28;20032;-60
2023/07/28 04:48:02;;;;;;;6.93;5.30;;;19.40;99.90;;;;;;5051274;28;20056;-60
2023/07/28 04:50:29;;;;;;;6.85;5.28;;;19.40;99.90;;;;;;5051352;28;20043;-60
2023/07/28 04:52:54;;;;;;;5.68;5.15;;;19.40;99.90;;;;;;5050987;28;20074;-60
2023/07/28 04:55:20;;;;;;;7.53;5.20;;;19.40;99.90;;;;;;5051212;28;20033;-60
2023/07/28 04:57:46;;;;;;;7.10;6.40;;;19.60;99.90;;;;;;5051215;28;20048;-60
2023/07/28 05:00:12;;;;;;;7.35;5.85;;;19.80;99.90;;;;;;5051076;28;20029;-60
2023/07/28 05:02:38;;;;;;;6.20;5.10;;;19.90;99.90;;;;;;5051389;28;20021;-60
2023/07/28 05:05:04;;;;;;;6.25;5.15;;;19.90;99.90;;;;;;5051080;28;20082;-60
2023/07/28 05:07:30;;;;;;;6.53;5.30;;;20.00;99.90;;;;;;5051407;28;20063;-60
2023/07/28 05:09:56;;;;;;;6.20;4.90;;;20.00;99.90;;;;;;5050772;28;20056;-60
2023/07/28 05:12:21;;;;;;;6.03;4.70;;;20.00;99.90;;;;;;5050966;28;20021;-60
2023/07/28 05:14:47;;;;;;;5.85;4.88;;;20.10;99.90;;;;;;5050812;28;20076;-60
2023/07/28 05:17:13;;;;;;;7.50;5.10;;;20.10;99.90;;;;;;5051047;28;20025;-60
2023/07/28 05:19:38;;;;;;;5.63;4.63;;;20.00;99.90;;;;;;5051315;28;20033;-60
2023/07/28 05:22:06;;;;;;;5.60;5.00;;;20.00;99.90;;;;;;5050824;28;20424;-60
2023/07/28 05:24:32;;;;;;;7.90;5.35;;;20.00;99.90;;;;;;5050540;28;20577;-60
2023/07/28 05:26:58;;;;;;;5.53;5.03;;;20.00;99.90;;;;;;5050939;28;20414;-60
2023/07/28 05:29:24;;;;;;;6.75;5.00;;;19.90;99.90;;;;;;5050926;28;20033;-60
2023/07/28 05:31:50;;;;;;;5.78;4.78;;;19.70;99.90;;;;;;5051284;28;20491;-60
2023/07/28 05:34:15;;;;;;;6.18;4.80;;;19.60;99.90;;;;;;5050906;28;20063;-60
2023/07/28 05:36:41;;;;;;;5.90;4.57;;;19.50;99.90;;;;;;5050763;28;20021;-60
2023/07/28 05:39:07;;;;;;;5.50;4.90;;;19.50;99.90;;;;;;5050577;28;20082;-60
2023/07/28 05:41:32;;;;;;;6.50;5.03;;;19.50;99.90;;;;;;5050837;28;20170;-60
2023/07/28 05:43:58;;;;;;;7.05;5.03;;;19.40;99.90;;;;;;5050316;28;20052;-60
2023/07/28 05:46:24;;;;;;;6.95;5.60;;;19.40;99.90;;;;;;5051210;28;20421;-60
2023/07/28 05:48:49;;;;;;;6.05;5.00;;;19.40;99.90;;;;;;5050659;28;20040;-60
2023/07/28 05:51:15;;;;;;;5.60;5.10;;;19.40;99.90;;;;;;5050523;28;20025;-60
2023/07/28 05:53:41;;;;;;;5.80;5.20;;;19.40;99.90;;;;;;5050165;28;20048;-60
2023/07/28 05:56:07;;;;;;;6.10;5.03;;;19.40;99.90;;;;;;5050969;28;20028;-60
2023/07/28 05:58:33;;;;;;;7.10;5.43;;;19.40;99.90;;;;;;5050773;28;20033;-61
2023/07/28 06:00:58;;;;;;;5.85;5.25;;;19.40;99.90;;;;;;5052637;28;20021;-61
2023/07/28 06:03:26;;;;;;;5.55;4.80;;;19.40;99.90;;;;;;5054253;28;20079;-60
2023/07/28 06:05:52;;;;;;;7.03;4.88;;;19.50;99.90;;;;;;5054703;28;20028;-60
2023/07/28 06:08:18;;;;;;;6.22;5.57;;;19.50;99.90;;;;;;5054119;28;20029;-60
2023/07/28 06:10:43;;;;;;;6.07;5.47;;;19.60;99.90;;;;;;5054193;28;20028;-60
2023/07/28 06:13:09;;;;;;;6.20;5.03;;;19.70;99.90;;;;;;5054375;28;20418;-60
2023/07/28 06:15:35;;;;;;;8.85;5.32;;;19.80;99.90;;;;;;5054033;28;20441;-60
2023/07/28 06:18:02;;;;;;;9.35;5.30;;;19.90;99.90;;;;;;5053919;28;20055;-61
2023/07/28 06:20:29;;;;;;;6.85;4.85;;;20.10;99.90;;;;;;5054009;28;20033;-60
2023/07/28 06:22:55;;;;;;;6.03;5.00;;;20.20;99.90;;;;;;5053595;28;20063;-60
2023/07/28 06:25:20;;;;;;;6.75;5.35;;;20.30;99.90;;;;;;5053845;28;20080;-60
2023/07/28 06:27:47;;;;;;;7.40;5.35;;;20.30;99.90;;;;;;5054246;28;20021;-60
2023/07/28 06:30:12;;;;;;;6.35;5.30;;;20.30;99.90;;;;;;5053874;28;20079;-60
2023/07/28 06:32:38;;;;;;;6.03;5.10;;;20.40;99.90;;;;;;5053720;28;20482;-60
2023/07/28 06:35:05;;;;;;;7.38;5.10;;;20.60;99.90;;;;;;5053718;28;20135;-60
2023/07/28 06:37:31;;;;;;;5.50;5.00;;;20.80;99.90;;;;;;5053677;28;20071;-60
2023/07/28 06:39:56;;;;;;;5.85;5.07;;;20.80;99.90;;;;;;5053706;28;20115;-60
2023/07/28 06:42:23;;;;;;;6.65;5.60;;;20.70;99.90;;;;;;5053507;28;20032;-60
2023/07/28 06:44:51;;;;;;;7.75;5.43;;;20.70;99.90;;;;;;5053611;28;20029;-60
2023/07/28 06:47:17;;;;;;;7.20;5.43;;;20.70;99.90;;;;;;5053423;28;20021;-61
2023/07/28 06:49:43;;;;;;;6.00;5.40;;;20.70;99.90;;;;;;5052299;28;20440;-61
2023/07/28 06:52:09;;;;;;;6.68;5.43;;;20.70;99.90;;;;;;5053411;28;20028;-60
2023/07/28 06:54:35;;;;;;;6.65;5.30;;;20.70;99.90;;;;;;5053291;28;20120;-61
2023/07/28 06:57:01;;;;;;;8.25;5.43;;;20.70;99.90;;;;;;5053359;28;20031;-60
2023/07/28 06:59:26;;;;;;;7.60;5.80;;;20.80;99.90;;;;;;5053350;28;20055;-61
2023/07/28 07:01:52;;;;;;;8.55;5.60;;;20.90;99.90;;;;;;5053649;28;20078;-61
2023/07/28 07:04:19;;;;;;;6.80;5.28;;;20.90;99.90;;;;;;5052790;28;20036;-60
2023/07/28 07:06:45;;;;;;;6.95;5.65;;;21.00;99.90;;;;;;5053137;28;20094;-60
2023/07/28 07:09:14;;;;;;;7.22;5.50;;;21.00;99.90;;;;;;5053254;28;20478;-60
2023/07/28 07:11:40;;;;;;;6.57;5.90;;;21.10;99.90;;;;;;5052169;28;20014;-61
2023/07/28 07:14:06;;;;;;;7.63;5.70;;;21.10;99.90;;;;;;5052980;28;20032;-60
2023/07/28 07:16:32;;;;;;;7.10;5.60;;;21.20;99.90;;;;;;5052961;28;20024;-61
2023/07/28 07:18:58;;;;;;;8.93;6.00;;;21.20;99.90;;;;;;5052609;28;20379;-61
2023/07/28 07:21:24;;;;;;;9.32;5.70;;;21.30;99.90;;;;;;5052980;28;20079;-61
2023/07/28 07:23:49;;;;;;;8.68;5.70;;;21.30;99.90;;;;;;5051535;28;20087;-61
2023/07/28 07:26:15;;;;;;;9.52;6.40;;;21.30;99.90;;;;;;5053164;28;20100;-60
2023/07/28 07:28:41;;;;;;;7.30;6.00;;;21.50;99.90;;;;;;5052932;28;20576;-60
2023/07/28 07:31:15;;;;;;;9.60;5.57;;;21.70;99.90;;;;;;5052645;28;20053;-60
2023/07/28 07:33:42;;;;;;;7.63;5.65;;;21.90;99.90;;;;;;5052472;28;20064;-61
2023/07/28 07:36:14;;;;;;;12.68;5.80;;;22.00;99.90;;;;;;5052849;28;20505;-60
2023/07/28 07:38:42;;;;;;;8.55;5.90;;;22.20;99.90;;;;;;5052642;28;20491;-60
2023/07/28 07:41:10;;;;;;;9.23;5.80;;;22.20;99.90;;;;;;5052800;28;20100;-60
2023/07/28 07:43:36;;;;;;;8.02;5.78;;;22.30;99.90;;;;;;5052342;28;20033;-60
2023/07/28 07:46:01;;;;;;;7.57;5.55;;;22.40;99.90;;;;;;5052694;28;20021;-60
2023/07/28 07:48:27;;;;;;;7.93;5.32;;;22.60;99.90;;;;;;5051963;28;20044;-61
2023/07/28 07:50:53;;;;;;;8.10;5.93;;;22.70;99.90;;;;;;5052357;28;20083;-60
2023/07/28 07:53:19;;;;;;;7.80;6.03;;;22.70;99.90;;;;;;5052402;28;20461;-61
2023/07/28 07:55:44;;;;;;;7.97;5.75;;;22.70;99.90;;;;;;5052522;28;20413;-60
2023/07/28 07:58:10;;;;;;;6.38;5.40;;;22.80;99.90;;;;;;5052202;28;20025;-61
2023/07/28 08:00:39;;;;;;;6.95;5.45;;;22.70;99.90;;;;;;5052003;28;20017;-61
2023/07/28 08:03:05;;;;;;;6.38;4.75;;;22.70;99.90;;;;;;5052156;28;20498;-61
2023/07/28 08:05:31;;;;;;;8.25;5.65;;;22.50;99.90;;;;;;5052030;28;20039;-61
2023/07/28 08:07:57;;;;;;;7.53;4.78;;;22.40;99.90;;;;;;5051877;28;20397;-61
2023/07/28 08:10:23;;;;;;;5.38;4.72;;;22.30;99.90;;;;;;5052251;28;20521;-60
2023/07/28 08:12:49;;;;;;;5.10;4.25;;;22.30;99.90;;;;;;5051673;28;20025;-60
2023/07/28 08:15:15;;;;;;;5.75;4.65;;;22.20;99.90;;;;;;5051927;28;20044;-60
2023/07/28 08:17:41;;;;;;;5.97;4.95;;;22.20;99.90;;;;;;5051459;28;20482;-61
2023/07/28 08:20:07;;;;;;;7.22;4.18;;;22.20;99.90;;;;;;5051779;28;20052;-61
2023/07/28 08:22:33;;;;;;;6.30;4.28;;;22.30;99.90;;;;;;5051741;28;20174;-61
2023/07/28 08:24:59;;;;;;;7.55;4.03;;;22.40;99.90;;;;;;5051627;28;20549;-61
2023/07/28 08:27:24;;;;;;;6.80;4.47;;;22.50;99.90;;;;;;5050357;28;20029;-61
2023/07/28 08:29:50;;;;;;;4.97;4.18;;;22.60;99.90;;;;;;5051657;28;20398;-61
2023/07/28 08:32:16;;;;;;;5.25;3.65;;;22.70;99.90;;;;;;5051184;28;20051;-61
2023/07/28 08:34:41;;;;;;;6.28;3.83;;;22.90;99.90;;;;;;5051898;28;20040;-61
2023/07/28 08:37:07;;;;;;;8.13;3.78;;;23.00;99.90;;;;;;5051544;28;20029;-61
2023/07/28 08:39:33;;;;;;;5.65;3.63;;;23.10;99.90;;;;;;5051350;28;20033;-61
2023/07/28 08:42:03;;;;;;;6.00;3.88;;;23.10;99.90;;;;;;5051691;28;20073;-61
2023/07/28 08:44:33;;;;;;;4.75;3.85;;;23.20;99.90;;;;;;5051159;28;20086;-61
2023/07/28 08:47:00;;;;;;;6.47;4.13;;;23.30;99.90;;;;;;5051288;28;20090;-61
2023/07/28 08:49:26;;;;;;;7.20;4.20;;;23.50;99.90;;;;;;5051513;28;20021;-61
2023/07/28 08:51:57;;;;;;;4.95;3.80;;;23.80;99.90;;;;;;5051327;28;20111;-61
2023/07/28 08:54:23;;;;;;;4.22;3.60;;;24.00;99.90;;;;;;5051136;28;20103;-60
2023/07/28 08:56:50;;;;;;;7.20;4.28;;;24.20;99.90;;;;;;5051578;28;20485;-61
2023/07/28 08:59:26;;;;;;;4.65;3.55;;;24.20;99.90;;;;;;5051060;28;20021;-60
2023/07/28 09:01:54;;;;;;;3.88;3.55;;;24.10;99.90;;;;;;5050993;28;20029;-60
2023/07/28 09:04:23;;;;;;;4.68;3.70;;;23.90;99.90;;;;;;5051293;28;20091;-61
2023/07/28 09:06:50;;;;;;;7.57;3.78;;;23.90;99.90;;;;;;5051537;28;20025;-60
2023/07/28 09:09:17;;;;;;;4.90;3.95;;;23.90;99.90;;;;;;5051169;28;20393;-61
2023/07/28 09:11:51;;;;;;;4.90;3.60;;;23.90;99.90;;;;;;5051450;28;20029;-61
2023/07/28 09:14:18;;;;;;;6.53;3.90;;;24.20;99.90;;;;;;5049743;28;20029;-60
2023/07/28 09:16:45;;;;;;;5.68;3.95;;;24.50;99.90;;;;;;5050861;28;20032;-61
2023/07/28 09:19:11;;;;;;;4.38;3.97;;;24.70;99.90;;;;;;5050819;28;20029;-61
2023/07/28 09:21:38;;;;;;;4.75;3.58;;;24.80;99.90;;;;;;5050966;28;20033;-61
2023/07/28 09:24:06;;;;;;;4.85;3.30;;;24.60;99.90;;;;;;5050785;28;20098;-61
2023/07/28 09:26:45;;;;;;;3.60;3.20;;;24.40;99.90;;;;;;5051457;28;20470;-61
2023/07/28 09:29:16;;;;;;;4.80;3.40;;;24.00;99.90;;;;;;5050756;28;20093;-61
2023/07/28 09:31:51;;;;;;;4.05;3.60;;;23.90;99.90;;;;;;5050854;28;20131;-61
2023/07/28 09:34:27;;;;;;;4.68;3.83;;;23.80;99.90;;;;;;5050681;28;20549;-61
2023/07/28 09:36:54;;;;;;;4.00;3.53;;;23.90;99.90;;;;;;5054210;28;20449;-61
2023/07/28 09:39:21;;;;;;;3.75;3.00;;;23.90;99.90;;;;;;5055055;28;20075;-61
2023/07/28 09:41:47;;;;;;;4.80;3.25;;;23.90;99.90;;;;;;5055043;28;20394;-61
2023/07/28 09:44:13;;;;;;;3.40;3.10;;;23.80;99.90;;;;;;5054494;28;20466;-61
2023/07/28 09:46:52;;;;;;;6.10;3.20;;;23.90;99.90;;;;;;5054775;28;20064;-61
2023/07/28 09:49:22;;;;;;;4.53;3.25;;;24.10;99.90;;;;;;5054497;28;20033;-61
2023/07/28 09:51:53;;;;;;;5.13;3.38;;;24.30;99.90;;;;;;5055042;28;20055;-61
2023/07/28 09:54:29;;;;;;;5.05;3.30;;;24.50;99.90;;;;;;5054482;28;20466;-61
2023/07/28 09:56:59;;;;;;;6.35;3.38;;;24.60;99.90;;;;;;5054411;28;20498;-61
2023/07/28 09:59:38;;;;;;;5.93;3.55;;;24.60;99.90;;;;;;5054443;28;20029;-61
2023/07/28 10:02:05;;;;;;;7.15;3.80;;;24.60;99.90;;;;;;5054719;28;20025;-61
2023/07/28 10:04:32;;;;;;;5.70;3.65;;;24.80;99.90;;;;;;5054512;28;20055;-61
2023/07/28 10:06:57;;;;;;;7.97;3.70;;;25.10;99.90;;;;;;5054330;28;20037;-61
2023/07/28 10:09:27;;;;;;;5.25;3.30;;;25.20;99.90;;;;;;5054555;28;20025;-61
2023/07/28 10:11:54;;;;;;;5.10;3.33;;;25.10;99.90;;;;;;5054395;28;20029;-61
2023/07/28 10:14:46;;;;;;;6.63;3.45;;;25.00;99.90;;;;;;5053637;28;20106;-61
2023/07/28 10:17:34;;;;;;;5.28;3.30;;;25.00;99.90;;;;;;5052246;28;20124;-61
2023/07/28 10:20:08;;;;;;;4.38;3.08;;;25.10;99.90;;;;;;5054001;28;20025;-61
2023/07/28 10:22:44;;;;;;;4.32;3.35;;;25.20;99.90;;;;;;5054082;28;20028;-61
2023/07/28 10:25:10;;;;;;;5.18;3.42;;;25.30;99.90;;;;;;5053782;28;20130;-61
2023/07/28 10:27:38;;;;;;;5.32;3.13;;;25.20;99.90;;;;;;5053513;28;20033;-61
2023/07/28 10:30:14;;;;;;;3.88;3.38;;;25.20;99.90;;;;;;5054257;28;20402;-61
2023/07/28 10:32:45;;;;;;;5.35;3.40;;;25.40;99.90;;;;;;5053727;28;20025;-61
2023/07/28 10:35:13;;;;;;;4.50;2.83;;;25.40;99.90;;;;;;5054299;28;20033;-61
2023/07/28 10:37:43;;;;;;;7.00;3.33;;;25.40;99.90;;;;;;5053772;28;20436;-61
2023/07/28 10:40:30;;;;;;;4.82;3.50;;;25.30;99.90;;;;;;5053588;28;20025;-61
2023/07/28 10:42:57;;;;;;;4.68;3.00;;;25.50;99.90;;;;;;5053166;28;20421;-61
2023/07/28 10:45:24;;;;;;;4.82;2.80;;;25.70;99.90;;;;;;5053578;28;20040;-62
2023/07/28 10:47:52;;;;;;;5.15;3.22;;;25.80;99.90;;;;;;5053553;28;20063;-61
2023/07/28 10:50:18;;;;;;;4.13;2.85;;;25.70;99.90;;;;;;5053558;28;20021;-61
2023/07/28 10:52:46;;;;;;;5.47;3.15;;;25.60;99.90;;;;;;5053314;28;20029;-61
2023/07/28 10:55:16;;;;;;;3.75;3.10;;;25.60;99.90;;;;;;5052037;28;20029;-61
2023/07/28 10:57:43;;;;;;;4.05;3.50;;;25.80;99.90;;;;;;5053476;28;20531;-61
2023/07/28 11:00:11;;;;;;;3.67;3.10;;;25.70;99.90;;;;;;5053353;28;20052;-62
2023/07/28 11:02:39;;;;;;;4.03;2.72;;;25.70;99.90;;;;;;5053308;28;20055;-61
2023/07/28 11:05:13;;;;;;;4.53;3.10;;;25.90;99.90;;;;;;5053277;28;20025;-61
2023/07/28 11:07:42;;;;;;;4.70;3.03;;;26.20;99.90;;;;;;5053180;28;20024;-62
2023/07/28 11:10:12;;;;;;;4.53;3.00;;;26.10;99.90;;;;;;5053428;28;20112;-60
2023/07/28 11:12:43;;;;;;;5.38;2.80;;;25.90;99.90;;;;;;5052628;28;20043;-61
2023/07/28 11:15:11;;;;;;;4.60;2.80;;;25.80;99.90;;;;;;5053078;28;20037;-61
2023/07/28 11:17:40;;;;;;;3.75;3.35;;;26.00;99.90;;;;;;5052936;28;20120;-61
2023/07/28 11:20:19;;;;;;;5.47;4.18;;;26.10;99.90;;;;;;5052897;28;20090;-61
2023/07/28 11:22:46;;;;;;;4.22;3.35;;;26.30;99.90;;;;;;5053167;28;20021;-61
2023/07/28 11:25:13;;;;;;;3.92;3.10;;;26.40;99.90;;;;;;5052590;28;20057;-61
2023/07/28 11:27:39;;;;;;;4.35;3.95;;;26.20;99.90;;;;;;5052940;28;20025;-61
2023/07/28 11:30:09;;;;;;;5.10;4.47;;;26.20;99.90;;;;;;5052745;28;20513;-61
2023/07/28 11:32:36;;;;;;;6.72;4.30;;;26.00;99.90;;;;;;5052558;28;20083;-61
2023/07/28 11:35:09;;;;;;;5.70;3.55;;;26.20;99.90;;;;;;5052768;28;20037;-61
2023/07/28 11:37:35;;;;;;;;;;;26.40;99.90;;;;;;5053435;28;20029;-61
2023/07/28 11:40:06;;;;;;;3.85;3.13;;;26.60;99.90;;;;;;5052276;28;19913;-61
2023/07/28 11:42:39;;;;;;;3.38;3.05;;;26.60;99.90;;;;;;5052695;28;20048;-61
2023/07/28 11:45:06;;;;;;;4.30;3.22;;;26.40;99.90;;;;;;5052546;28;20036;-61
2023/07/28 11:47:32;;;;;;;3.67;3.03;;;26.40;99.90;;;;;;5052372;28;20033;-61
2023/07/28 11:49:58;;;;;;;3.88;3.20;;;26.20;99.90;;;;;;5052460;28;20064;-61
2023/07/28 11:52:46;;;;;;;3.90;2.70;;;26.30;99.90;;;;;;5052288;28;20056;-61
2023/07/28 11:55:11;;;;;;;3.50;2.75;;;26.60;99.90;;;;;;5052422;28;20071;-61
2023/07/28 11:57:37;;;;;;;4.38;2.80;;;26.70;99.90;;;;;;5051961;28;20064;-61
2023/07/28 12:00:05;;;;;;;3.60;2.95;;;26.80;99.90;;;;;;5051934;28;20453;-61
2023/07/28 12:02:33;;;;;;;3.88;2.88;;;26.80;99.90;;;;;;5052479;28;20055;-61
2023/07/28 12:04:59;;;;;;;3.75;2.83;;;26.80;99.90;;;;;;5052063;28;20044;-61
2023/07/28 12:07:32;;;;;;;3.85;3.00;;;26.90;99.90;;;;;;5051991;28;20045;-61
2023/07/28 12:10:04;;;;;;;3.78;2.88;;;27.00;99.90;;;;;;5051765;28;20025;-61
2023/07/28 12:12:31;;;;;;;;;;;27.00;99.90;;;;;;5052385;28;20041;-61
2023/07/28 12:15:04;;;;;;;3.97;3.00;;;27.00;99.90;;;;;;5051676;28;20447;-61
2023/07/28 12:17:30;;;;;;;3.75;2.90;;;27.10;99.90;;;;;;5052222;28;20153;-61
2023/07/28 12:20:10;;;;;;;3.92;2.80;;;26.90;99.90;;;;;;5051852;28;20063;-61
2023/07/28 12:22:37;;;;;;;3.95;2.50;;;26.80;99.90;;;;;;5051720;28;20424;-61
2023/07/28 12:25:04;;;;;;;3.25;2.67;;;26.80;99.90;;;;;;5051461;28;20045;-62
2023/07/28 12:27:30;;;;;;;3.03;2.67;;;27.00;99.90;;;;;;5051973;28;20551;-60
2023/07/28 12:29:56;;;;;;;2.63;2.33;;;26.80;99.90;;;;;;5051717;28;20029;-61
2023/07/28 12:32:22;;;;;;;2.83;2.40;;;26.90;99.90;;;;;;5051555;28;20029;-61
2023/07/28 12:34:50;;;;;;;3.38;2.50;;;26.90;99.90;;;;;;5051545;28;20045;-61
2023/07/28 12:37:16;;;;;;;3.28;2.58;;;27.00;99.90;;;;;;5050134;28;20037;-61
2023/07/28 12:39:43;;;;;;;3.20;2.67;;;27.10;99.90;;;;;;5051679;28;20033;-61
2023/07/28 12:42:10;;;;;;;4.43;2.95;;;27.20;99.90;;;;;;5051459;28;20079;-61
2023/07/28 12:44:36;;;;;;;5.72;2.65;;;27.30;99.90;;;;;;5051398;28;20054;-61
2023/07/28 12:47:02;;;;;;;3.47;2.50;;;27.30;99.90;;;;;;5051516;28;20398;-61
2023/07/28 12:49:29;;;;;;;2.75;1.90;;;27.20;99.90;;;;;;5051661;28;20163;-61